createdAt,value
2022-12-19T00:02:02.098Z,15.93
2022-12-19T00:04:30.658Z,16.50
2022-12-19T00:06:59.633Z,17.90
2022-12-19T00:09:29.245Z,16.88
2022-12-19T00:11:57.699Z,17.73
2022-12-19T00:14:26.152Z,16.00
2022-12-19T00:16:55.048Z,17.70
2022-12-19T00:19:24.236Z,18.27
2022-12-19T00:21:52.683Z,15.57
2022-12-19T00:24:21.917Z,17.42
2022-12-19T00:26:51.636Z,16.55
2022-12-19T00:29:20.171Z,17.38
2022-12-19T00:31:48.764Z,17.13
2022-12-19T00:34:17.291Z,16.98
2022-12-19T00:36:45.820Z,16.38
2022-12-19T00:39:14.319Z,17.23
2022-12-19T00:41:43.243Z,17.80
2022-12-19T00:44:18.075Z,18.07
2022-12-19T00:46:52.720Z,15.95
2022-12-19T00:49:21.669Z,16.33
2022-12-19T00:51:50.281Z,16.65
2022-12-19T00:54:18.868Z,17.35
2022-12-19T00:56:47.509Z,16.73
2022-12-19T00:59:17.140Z,17.15
2022-12-19T01:01:54.740Z,16.23
2022-12-19T01:04:32.652Z,15.90
2022-12-19T01:07:05.765Z,14.80
2022-12-19T01:09:38.859Z,15.60
2022-12-19T01:12:25.386Z,16.17
2022-12-19T01:15:02.836Z,15.45
2022-12-19T01:17:34.773Z,16.27
2022-12-19T01:20:13.917Z,15.32
2022-12-19T01:22:42.377Z,17.40
2022-12-19T01:25:11.188Z,16.98
2022-12-19T01:27:40.935Z,15.15
2022-12-19T01:30:12.517Z,15.60
2022-12-19T01:32:42.292Z,16.30
2022-12-19T01:35:14.608Z,16.73
2022-12-19T01:37:49.996Z,16.40
2022-12-19T01:40:18.705Z,15.18
2022-12-19T01:42:47.108Z,15.52
2022-12-19T01:45:34.447Z,17.83
2022-12-19T01:48:08.733Z,16.40
2022-12-19T01:50:42.972Z,16.08
2022-12-19T01:53:32.709Z,15.27
2022-12-19T01:56:08.905Z,15.82
2022-12-19T01:58:39.384Z,15.55
2022-12-19T02:01:08.980Z,14.73
2022-12-19T02:03:39.040Z,14.88
2022-12-19T02:06:12.781Z,14.45
2022-12-19T02:08:43.350Z,15.63
2022-12-19T02:11:11.853Z,15.15
2022-12-19T02:13:40.828Z,15.07
2022-12-19T02:16:28.095Z,15.35
2022-12-19T02:19:10.099Z,15.60
2022-12-19T02:21:54.672Z,14.95
2022-12-19T02:24:47.166Z,14.43
2022-12-19T02:27:40.331Z,15.23
2022-12-19T02:30:14.022Z,15.82
2022-12-19T02:33:01.862Z,14.23
2022-12-19T02:35:38.460Z,15.82
2022-12-19T02:38:14.276Z,15.35
2022-12-19T02:40:50.032Z,14.50
2022-12-19T02:43:26.702Z,16.05
2022-12-19T02:45:55.607Z,14.23
2022-12-19T02:48:25.764Z,14.80
2022-12-19T02:50:54.307Z,14.50
2022-12-19T02:53:23.955Z,15.60
2022-12-19T02:56:18.699Z,14.45
2022-12-19T02:59:03.155Z,15.82
2022-12-19T03:01:45.674Z,14.57
2022-12-19T03:04:25.471Z,16.17
2022-12-19T03:06:56.535Z,14.03
2022-12-19T03:09:33.420Z,14.00
2022-12-19T03:12:07.601Z,16.10
2022-12-19T03:14:38.261Z,15.40
2022-12-19T03:17:07.926Z,15.88
2022-12-19T03:19:41.215Z,15.60
2022-12-19T03:22:11.516Z,16.90
2022-12-19T03:24:39.923Z,15.57
2022-12-19T03:27:12.401Z,16.50
2022-12-19T03:29:46.741Z,15.52
2022-12-19T03:32:16.506Z,14.13
2022-12-19T03:34:49.086Z,16.08
2022-12-19T03:37:21.705Z,15.05
2022-12-19T03:39:54.165Z,14.57
2022-12-19T03:42:44.339Z,16.77
2022-12-19T03:45:14.829Z,16.27
2022-12-19T03:47:49.064Z,14.48
2022-12-19T03:50:19.201Z,15.93
2022-12-19T03:52:58.608Z,16.75
2022-12-19T03:55:33.300Z,15.95
2022-12-19T03:58:09.102Z,15.80
2022-12-19T04:00:41.543Z,16.17
2022-12-19T04:03:11.226Z,15.52
2022-12-19T04:05:43.071Z,16.30
2022-12-19T04:08:12.851Z,17.02
2022-12-19T04:10:46.825Z,17.20
2022-12-19T04:13:18.093Z,16.23
2022-12-19T04:15:52.807Z,15.60
2022-12-19T04:18:22.102Z,16.52
2022-12-19T04:20:59.051Z,14.27
2022-12-19T04:23:33.091Z,16.97
2022-12-19T04:26:04.793Z,16.25
2022-12-19T04:28:37.543Z,15.55
2022-12-19T04:31:06.463Z,15.65
2022-12-19T04:33:34.699Z,17.20
2022-12-19T04:36:04.506Z,17.20
2022-12-19T04:38:33.315Z,18.83
2022-12-19T04:41:01.796Z,17.00
2022-12-19T04:43:30.262Z,17.52
2022-12-19T04:45:58.748Z,16.02
2022-12-19T04:48:27.319Z,17.83
2022-12-19T04:50:55.799Z,16.75
2022-12-19T04:53:25.303Z,16.60
2022-12-19T04:56:01.858Z,16.45
2022-12-19T04:58:30.372Z,17.40
2022-12-19T05:01:02.704Z,15.63
2022-12-19T05:03:30.951Z,15.75
2022-12-19T05:06:05.810Z,16.90
2022-12-19T05:08:36.266Z,15.70
2022-12-19T05:11:05.549Z,16.50
2022-12-19T05:13:34.214Z,15.00
2022-12-19T05:16:04.433Z,15.40
2022-12-19T05:18:33.356Z,17.70
2022-12-19T05:21:01.906Z,16.70
2022-12-19T05:23:30.339Z,15.35
2022-12-19T05:26:01.047Z,15.80
2022-12-19T05:28:29.775Z,15.20
2022-12-19T05:31:04.887Z,15.82
2022-12-19T05:33:33.535Z,16.83
2022-12-19T05:36:02.029Z,16.98
2022-12-19T05:38:30.910Z,16.90
2022-12-19T05:41:00.812Z,15.98
2022-12-19T05:43:29.327Z,17.17
2022-12-19T05:45:57.773Z,16.02
2022-12-19T05:48:26.410Z,15.68
2022-12-19T05:50:54.907Z,18.33
2022-12-19T05:53:26.050Z,16.38
2022-12-19T05:55:54.972Z,16.45
2022-12-19T05:58:24.619Z,16.42
2022-12-19T06:00:56.841Z,16.98
2022-12-19T06:03:28.008Z,16.33
2022-12-19T06:05:56.729Z,16.73
2022-12-19T06:08:25.359Z,15.32
2022-12-19T06:13:38.029Z,16.98
2022-12-19T06:16:12.891Z,16.47
2022-12-19T06:19:22.898Z,17.17
2022-12-19T06:21:54.185Z,16.30
2022-12-19T06:24:23.341Z,17.17
2022-12-19T06:26:51.903Z,16.25
2022-12-19T06:29:21.716Z,16.47
2022-12-19T06:31:50.402Z,15.95
2022-12-19T06:34:46.923Z,15.90
2022-12-19T06:37:08.512Z,15.18
2022-12-19T06:39:37.510Z,17.48
2022-12-19T06:42:23.716Z,16.70
2022-12-19T06:44:55.940Z,14.68
2022-12-19T06:47:25.263Z,17.85
2022-12-19T06:49:53.843Z,19.00
2022-12-19T06:52:22.484Z,17.65
2022-12-19T06:54:51.065Z,16.00
2022-12-19T06:57:19.609Z,15.73
2022-12-19T06:59:48.259Z,16.88
2022-12-19T07:02:27.322Z,16.50
2022-12-19T07:05:02.720Z,16.98
2022-12-19T07:07:31.825Z,16.37
2022-12-19T07:10:00.878Z,17.20
2022-12-19T07:12:29.608Z,15.90
2022-12-19T07:14:58.188Z,15.45
2022-12-19T07:17:29.651Z,16.42
2022-12-19T07:19:59.803Z,15.97
2022-12-19T07:22:34.428Z,17.40
2022-12-19T07:25:06.078Z,16.70
2022-12-19T07:27:36.114Z,17.13
2022-12-19T07:30:06.140Z,16.15
2022-12-19T07:32:44.245Z,16.63
2022-12-19T07:35:13.171Z,15.50
2022-12-19T07:37:42.146Z,16.25
2022-12-19T07:40:14.415Z,16.25
2022-12-19T07:42:42.918Z,15.60
2022-12-19T07:45:15.604Z,16.13
2022-12-19T07:47:45.527Z,15.98
2022-12-19T07:50:14.085Z,16.67
2022-12-19T07:52:42.698Z,18.27
2022-12-19T07:55:12.058Z,17.27
2022-12-19T07:57:41.292Z,16.70
2022-12-19T08:00:11.196Z,16.90
2022-12-19T08:02:43.240Z,15.35
2022-12-19T08:05:13.489Z,16.33
2022-12-19T08:07:42.657Z,16.98
2022-12-19T08:10:12.695Z,16.67
2022-12-19T08:12:41.460Z,18.67
2022-12-19T08:15:11.319Z,17.10
2022-12-19T08:17:40.509Z,16.65
2022-12-19T08:20:11.293Z,15.52
2022-12-19T08:22:41.125Z,16.87
2022-12-19T08:25:10.150Z,18.00
2022-12-19T08:27:39.729Z,17.67
2022-12-19T08:30:09.333Z,17.33
2022-12-19T08:32:37.855Z,17.58
2022-12-19T08:35:06.728Z,16.80
2022-12-19T08:37:37.129Z,16.77
2022-12-19T08:40:08.484Z,17.52
2022-12-19T08:42:37.155Z,15.93
2022-12-19T08:45:06.293Z,17.52
2022-12-19T08:47:34.838Z,17.40
2022-12-19T08:50:03.550Z,16.60
2022-12-19T08:52:32.216Z,17.85
2022-12-19T08:55:00.821Z,17.55
2022-12-19T08:57:30.499Z,18.17
2022-12-19T08:59:59.210Z,16.70
2022-12-19T09:02:28.870Z,18.13
2022-12-19T09:06:00.739Z,15.50
2022-12-19T09:07:46.698Z,18.08
2022-12-19T09:10:15.761Z,16.42
2022-12-19T09:12:50.161Z,22.50
2022-12-19T09:15:23.358Z,32.95
2022-12-19T09:17:52.285Z,19.95
2022-12-19T09:20:23.566Z,18.17
2022-12-19T09:22:52.622Z,16.27
2022-12-19T09:25:21.336Z,18.30
2022-12-19T09:28:25.851Z,17.02
2022-12-19T09:30:39.927Z,18.05
2022-12-19T09:33:08.787Z,18.60
2022-12-19T09:35:50.276Z,18.52
2022-12-19T09:38:25.878Z,16.60
2022-12-19T09:41:11.252Z,17.45
2022-12-19T09:43:52.539Z,18.50
2022-12-19T09:46:28.892Z,17.63
2022-12-19T09:49:01.582Z,18.77
2022-12-19T09:51:36.050Z,18.60
2022-12-19T09:54:10.908Z,17.45
2022-12-19T09:56:45.977Z,18.30
2022-12-19T09:59:28.291Z,17.92
2022-12-19T10:02:31.210Z,17.73
2022-12-19T10:05:26.815Z,18.42
2022-12-19T10:08:09.308Z,17.58
2022-12-19T10:12:35.088Z,19.08
2022-12-19T10:13:53.865Z,19.10
2022-12-19T10:16:32.336Z,17.75
2022-12-19T10:19:06.270Z,15.93
2022-12-19T10:22:16.236Z,17.95
2022-12-19T10:24:56.420Z,16.45
2022-12-19T10:27:58.937Z,17.13
2022-12-19T10:30:31.957Z,17.00
2022-12-19T10:33:18.300Z,17.75
2022-12-19T10:35:54.411Z,17.75
2022-12-19T10:38:30.488Z,16.95
2022-12-19T10:41:16.752Z,16.30
2022-12-19T10:43:59.192Z,17.67
2022-12-19T10:46:45.344Z,17.90
2022-12-19T10:49:22.053Z,17.20
2022-12-19T10:52:02.846Z,15.90
2022-12-19T10:54:46.694Z,17.52
2022-12-19T10:57:26.343Z,17.35
2022-12-19T11:00:03.982Z,16.92
2022-12-19T11:02:47.497Z,16.60
2022-12-19T11:05:28.756Z,17.88
2022-12-19T11:08:12.825Z,17.17
2022-12-19T11:13:02.064Z,17.75
2022-12-19T11:18:42.338Z,17.55
2022-12-19T11:23:03.842Z,17.95
2022-12-19T11:29:36.671Z,18.13
2022-12-19T11:29:42.672Z,17.00
2022-12-19T11:30:09.511Z,17.85
2022-12-19T11:30:43.364Z,17.23
2022-12-19T11:34:06.124Z,16.10
2022-12-19T11:36:38.842Z,17.27
2022-12-19T11:39:17.003Z,17.35
2022-12-19T11:41:50.905Z,18.35
2022-12-19T11:44:37.569Z,18.48
2022-12-19T11:47:18.825Z,16.98
2022-12-19T11:49:52.762Z,17.02
2022-12-19T11:53:03.484Z,16.80
2022-12-19T11:55:31.757Z,18.27
2022-12-19T11:58:00.394Z,17.63
2022-12-19T12:00:30.150Z,16.50
2022-12-19T12:03:35.837Z,17.27
2022-12-19T12:06:11.973Z,17.35
2022-12-19T12:11:19.836Z,18.23
2022-12-19T12:21:15.157Z,17.52
2022-12-19T12:28:55.298Z,17.83
2022-12-19T12:31:10.063Z,17.85
2022-12-19T12:31:14.478Z,16.60
2022-12-19T12:31:44.254Z,19.98
2022-12-19T12:31:50.632Z,26.60
2022-12-19T12:31:57.580Z,17.08
2022-12-19T12:35:38.051Z,19.42
2022-12-19T12:39:01.740Z,20.70
2022-12-19T12:41:58.445Z,21.77
2022-12-19T12:44:42.922Z,18.38
2022-12-19T12:47:21.641Z,20.10
2022-12-19T12:49:54.645Z,17.85
2022-12-19T12:52:31.280Z,18.83
2022-12-19T12:55:00.748Z,19.73
2022-12-19T12:57:38.437Z,19.85
2022-12-19T13:00:20.492Z,19.20
2022-12-19T13:02:55.987Z,19.35
2022-12-19T13:05:41.433Z,17.88
2022-12-19T13:08:40.098Z,19.98
2022-12-19T13:11:36.333Z,19.67
2022-12-19T13:14:05.717Z,19.05
2022-12-19T13:16:56.298Z,18.67
2022-12-19T13:19:29.173Z,20.30
2022-12-19T13:22:18.932Z,19.00
2022-12-19T13:24:50.140Z,17.80
2022-12-19T13:27:50.051Z,18.83
2022-12-19T13:30:20.411Z,18.67
2022-12-19T13:33:10.389Z,19.27
2022-12-19T13:36:46.975Z,19.73
2022-12-19T13:39:58.314Z,19.08
2022-12-19T13:42:01.342Z,18.02
2022-12-19T13:44:30.306Z,18.55
2022-12-19T13:46:59.408Z,20.55
2022-12-19T13:49:35.125Z,20.80
2022-12-19T13:52:11.647Z,19.25
2022-12-19T13:54:49.130Z,21.30
2022-12-19T13:57:24.381Z,20.23
2022-12-19T14:00:00.515Z,19.70
2022-12-19T14:02:45.401Z,20.08
2022-12-19T14:05:34.064Z,19.90
2022-12-19T14:08:21.702Z,21.27
2022-12-19T14:11:33.477Z,21.52
2022-12-19T14:14:10.284Z,19.77
2022-12-19T14:16:44.475Z,20.25
2022-12-19T14:19:21.829Z,21.10
2022-12-19T14:22:11.069Z,21.58
2022-12-19T14:24:42.685Z,20.58
2022-12-19T14:28:25.490Z,22.45
2022-12-19T14:30:33.155Z,19.95
2022-12-19T14:33:53.580Z,20.58
2022-12-19T14:36:10.095Z,20.52
2022-12-19T14:39:22.660Z,20.60
2022-12-19T14:42:02.761Z,20.30
2022-12-19T14:52:11.745Z,20.98
2022-12-19T14:52:52.390Z,20.80
2022-12-19T14:54:15.329Z,22.23
2022-12-19T14:54:39.881Z,20.70
2022-12-19T14:59:04.543Z,21.65
2022-12-19T15:01:36.558Z,22.73
2022-12-19T15:04:51.894Z,22.00
2022-12-19T15:07:08.583Z,21.13
2022-12-19T15:11:08.134Z,21.65
2022-12-19T15:14:47.391Z,21.92
2022-12-19T15:16:07.435Z,19.83
2022-12-19T20:45:27.792Z,41.20
2022-12-19T20:47:56.375Z,88.22
2022-12-19T20:50:24.778Z,101.75
2022-12-19T20:52:53.248Z,66.97
2022-12-19T20:55:22.201Z,69.43
2022-12-19T20:57:50.641Z,31.50
2022-12-19T21:00:20.022Z,46.00
2022-12-19T21:03:25.807Z,63.13
2022-12-19T21:05:38.005Z,52.83
2022-12-19T21:08:07.025Z,77.22
2022-12-19T21:10:36.958Z,30.52
2022-12-19T21:13:05.647Z,43.80
2022-12-19T21:15:35.177Z,36.95
2022-12-19T21:18:05.069Z,27.13
2022-12-19T21:20:34.749Z,77.70
2022-12-19T21:23:03.414Z,80.25
2022-12-19T21:25:32.338Z,99.40
2022-12-19T21:28:00.723Z,45.85
2022-12-19T21:30:29.219Z,26.08
2022-12-19T21:32:57.910Z,40.80
2022-12-19T21:35:27.572Z,63.72
2022-12-19T21:37:56.255Z,47.92
2022-12-19T21:40:24.820Z,38.90
2022-12-19T21:42:53.275Z,22.63
2022-12-19T21:45:21.730Z,19.60
2022-12-19T21:47:50.686Z,19.40
2022-12-19T21:50:26.045Z,20.17
2022-12-19T21:52:56.667Z,51.08
2022-12-19T21:55:25.196Z,57.30
2022-12-19T21:57:53.801Z,49.80
2022-12-19T22:00:22.874Z,41.97
2022-12-19T22:03:12.440Z,23.67
2022-12-19T22:05:40.305Z,32.25
2022-12-19T22:08:10.565Z,29.15
2022-12-19T22:10:39.603Z,23.50
2022-12-19T22:13:07.986Z,30.83
2022-12-19T22:15:45.460Z,24.25
2022-12-19T22:18:13.819Z,20.58
2022-12-19T22:20:42.815Z,18.38
2022-12-19T22:23:13.797Z,21.60
2022-12-19T22:25:44.757Z,27.70
2022-12-19T22:28:15.090Z,28.25
2022-12-19T22:30:43.540Z,49.05
2022-12-19T22:33:18.285Z,27.15
2022-12-19T22:35:46.739Z,26.75
2022-12-19T22:38:16.232Z,24.38
2022-12-19T22:40:47.823Z,59.63
2022-12-19T22:43:16.266Z,39.08
2022-12-19T22:45:44.788Z,28.48
2022-12-19T22:48:20.153Z,19.45
2022-12-19T22:50:48.787Z,18.20
2022-12-19T22:53:18.295Z,18.88
2022-12-19T22:55:46.876Z,19.08
2022-12-19T22:58:15.438Z,17.17
2022-12-19T23:00:44.076Z,18.25
2022-12-19T23:03:12.945Z,19.95
2022-12-19T23:05:50.127Z,17.98
2022-12-19T23:08:24.145Z,17.77
2022-12-19T23:10:53.162Z,18.05
2022-12-19T23:13:21.587Z,19.35
2022-12-19T23:15:50.119Z,18.13
2022-12-19T23:18:20.048Z,18.50
2022-12-19T23:20:48.666Z,19.20
2022-12-19T23:23:17.239Z,19.33
2022-12-19T23:25:46.674Z,19.90
2022-12-19T23:28:15.368Z,19.08
2022-12-19T23:30:43.836Z,17.30
2022-12-19T23:33:12.329Z,16.73
2022-12-19T23:35:40.800Z,15.80
2022-12-19T23:38:09.285Z,14.88
2022-12-19T23:40:37.816Z,14.52
2022-12-19T23:43:07.415Z,16.50
2022-12-19T23:45:39.050Z,14.80
2022-12-19T23:48:08.201Z,17.35
2022-12-19T23:50:38.270Z,16.02
2022-12-19T23:53:10.101Z,14.88
2022-12-19T23:55:38.559Z,14.75
2022-12-19T23:58:14.495Z,15.43
